Central Nebraska Regional Airport
KGRI : now visible

Airfield :











YOU CAN JOIN US ON...

 
LOGIN :

Register | Disclaimer

   EN    FR    IT 

 









Legend :    VFR   Marginal VFR   IFR   Intensive IFR   Very Intensive IFR
Visi :
Ceiling :
>= 8 km
>= 3000ft
5 to 8 km
1000 to 3000 ft
1500m to 5 km
500 to 1000 ft
800 to 1500m
200 to 500 ft
< 800m
< 200 ft
Symbols :   Thunderstorms  Fog  Heavy snow  Heavy precipitations  Wind > 20 kt







- Airport Elevation : 1847 ft
- IATA code : GRI


KGRI - Central Nebraska Regional

CURRENT METAR :
  • 160553Z AUTO 17008KT 10SM CLR 22/18 A2999 RMK AO2 SLP142 T02220178 10278 20222 403170150 50001 $

EXPIRED METARs :
  • 160453Z AUTO 15006KT 10SM CLR 22/19 A2999 RMK AO2 SLP144 T02220189 $
  • 160353Z AUTO 14006KT 10SM CLR 23/19 A3000 RMK AO2 SLP147 T02330194 $

TAF KGRI
Valid from the 16 at 06:00 until the 17 at 06:00 UTC


160557Z 1606/1706 18008KT P6SM BKN250 WS010/21040KT
FM161400 19012KT P6SM BKN250
FM161600 18016G24KT P6SM FEW100 BKN250
FM170000 15012KT P6SM SCT100
FM170300 16015G21KT P6SM SCT100 SCT250 WS020/18045KT
No reported NOTAMs for that airfield.



MET'MAP, your aeronautical weather chart ! - Copyright ORBIFLY December 2007 - Disclaimer

ORBIFLY MET'MAP TEAM :

Programming & Development : Alexandra Zaïnal
Concept & Development : Baudouin d'Aumeries
Co-Development & Prog : Marc-Olivier Méhu
Technical & hardware support : Manuel Goepfert

Contact : metmap@orbifly.com




SOURCES & CREDITS :

   NOAA       Earth
Advisory